Time;durP1;ratioP1;P1;durP2;ratioP2;P2;SDS_P1;SDS_P2;PMS_P1;PMS_P2;Temp;Humidity;BMP_temperature;BMP_pressure;BME280_temperature;BME280_humidity;BME280_pressure;Samples;Min_cycle;Max_cycle;Signal;HPM_P1;HPM_P2
2023/08/07 00:00:24;;;;;;;17.60;14.15;;;23.30;99.90;;;;;;5015580;28;20190;-90
2023/08/07 00:02:52;;;;;;;16.50;13.50;;;23.20;99.90;;;;;;5131149;27;20678;-90
2023/08/07 00:05:20;;;;;;;16.33;14.43;;;23.20;99.90;;;;;;5018479;28;20254;-89
2023/08/07 00:07:47;;;;;;;20.60;15.18;;;23.20;99.90;;;;;;5043154;28;20189;-90
2023/08/07 00:10:15;;;;;;;15.80;13.82;;;23.20;99.90;;;;;;5042581;28;20189;-90
2023/08/07 00:12:43;;;;;;;18.85;14.32;;;23.10;99.90;;;;;;5108305;27;20785;-91
2023/08/07 00:15:11;;;;;;;17.65;14.02;;;23.10;99.90;;;;;;5042042;28;20250;-90
2023/08/07 00:17:39;;;;;;;16.92;14.80;;;23.10;99.90;;;;;;5011517;28;20212;-90
2023/08/07 00:20:07;;;;;;;20.48;14.57;;;23.10;99.90;;;;;;5031706;28;20217;-89
2023/08/07 00:22:35;;;;;;;20.80;15.45;;;23.10;99.90;;;;;;5045925;28;20980;-90
2023/08/07 00:25:03;;;;;;;18.58;15.02;;;23.10;99.90;;;;;;5046061;28;20268;-90
2023/08/07 00:27:30;;;;;;;16.77;14.63;;;23.00;99.90;;;;;;5033233;28;20205;-90
2023/08/07 00:29:58;;;;;;;16.35;13.43;;;23.00;99.90;;;;;;5037638;28;20198;-89
2023/08/07 00:32:25;;;;;;;17.85;14.57;;;23.00;99.90;;;;;;5031066;28;20200;-89
2023/08/07 00:34:53;;;;;;;16.75;14.07;;;23.00;99.90;;;;;;5031881;28;20197;-89
2023/08/07 00:37:20;;;;;;;16.48;14.70;;;23.00;99.90;;;;;;5037985;28;20732;-89
2023/08/07 00:39:48;;;;;;;16.17;14.32;;;23.00;99.90;;;;;;5049039;28;20220;-89
2023/08/07 00:42:15;;;;;;;16.80;15.00;;;23.00;99.90;;;;;;5133351;27;20205;-90
2023/08/07 00:44:43;;;;;;;18.08;14.65;;;23.00;99.90;;;;;;5015413;28;20197;-88
2023/08/07 00:47:11;;;;;;;20.77;14.25;;;23.00;99.90;;;;;;5035414;28;20255;-89
2023/08/07 00:49:39;;;;;;;18.13;15.13;;;23.00;99.90;;;;;;5030845;28;20191;-88
2023/08/07 00:52:07;;;;;;;17.60;14.27;;;22.90;99.90;;;;;;5023895;28;20199;-90
2023/08/07 00:54:35;;;;;;;20.98;15.38;;;22.90;99.90;;;;;;5012225;28;20586;-89
2023/08/07 00:57:14;;;;;;;17.83;14.20;;;22.90;99.90;;;;;;5030030;28;20182;-89
2023/08/07 00:59:43;;;;;;;18.60;14.38;;;22.90;99.90;;;;;;5039856;28;20185;-88
2023/08/07 01:02:13;;;;;;;22.02;14.55;;;22.90;99.90;;;;;;5039678;28;20201;-88
2023/08/07 01:04:41;;;;;;;17.45;14.27;;;22.90;99.90;;;;;;5020818;28;20193;-89
2023/08/07 01:07:08;;;;;;;18.20;15.00;;;22.90;99.90;;;;;;5027325;28;20292;-90
2023/08/07 01:09:36;;;;;;;16.63;14.63;;;22.90;99.90;;;;;;5036020;28;20197;-89
2023/08/07 01:12:25;;;;;;;20.23;14.98;;;22.90;99.90;;;;;;5027990;28;20196;-90
2023/08/07 01:15:21;;;;;;;16.77;14.85;;;22.90;99.90;;;;;;5028112;28;20191;-88
2023/08/07 01:17:52;;;;;;;19.38;15.48;;;22.90;99.90;;;;;;5032903;28;20216;-89
2023/08/07 01:20:20;;;;;;;20.38;14.43;;;22.80;99.90;;;;;;5039669;28;20189;-89
2023/08/07 01:22:47;;;;;;;17.45;14.75;;;22.70;99.90;;;;;;5101573;27;20230;-88
2023/08/07 01:25:15;;;;;;;18.27;14.85;;;22.80;99.90;;;;;;5035770;28;20800;-89
2023/08/07 01:27:53;;;;;;;17.10;14.45;;;22.80;99.90;;;;;;5032634;28;20205;-89
2023/08/07 01:30:30;;;;;;;17.63;13.65;;;22.80;99.90;;;;;;5038876;28;20200;-90
2023/08/07 01:32:58;;;;;;;19.23;14.20;;;22.80;99.90;;;;;;5037638;28;20189;-87
2023/08/07 01:35:29;;;;;;;19.92;15.25;;;22.70;99.90;;;;;;5046793;28;20193;-89
2023/08/07 01:37:58;;;;;;;18.80;14.50;;;22.70;99.90;;;;;;5029995;28;20210;-88
2023/08/07 01:40:28;;;;;;;17.10;14.07;;;22.70;99.90;;;;;;5021932;28;20271;-89
2023/08/07 01:42:56;;;;;;;18.85;15.07;;;22.70;99.90;;;;;;5026242;28;20227;-88
2023/08/07 01:45:28;;;;;;;21.40;14.65;;;22.70;99.90;;;;;;5034761;28;20186;-88
2023/08/07 01:47:55;;;;;;;19.35;14.43;;;22.60;99.90;;;;;;5105319;27;20194;-90
2023/08/07 01:50:24;;;;;;;20.73;15.65;;;22.60;99.90;;;;;;5039926;28;20799;-88
2023/08/07 01:52:52;;;;;;;16.88;14.02;;;22.70;99.90;;;;;;5045124;28;20197;-89
2023/08/07 01:55:21;;;;;;;19.75;15.20;;;22.60;99.90;;;;;;5037240;28;20662;-88
2023/08/07 01:57:52;;;;;;;17.85;14.85;;;22.70;99.90;;;;;;5105733;27;20621;-89
2023/08/07 02:00:21;;;;;;;22.42;15.07;;;22.60;99.90;;;;;;5042758;27;20196;-88
2023/08/07 02:02:48;;;;;;;16.92;15.13;;;22.60;99.90;;;;;;5032186;28;20210;-89
2023/08/07 02:05:16;;;;;;;18.65;14.20;;;22.50;99.90;;;;;;5043837;28;20666;-89
2023/08/07 02:07:44;;;;;;;18.15;14.35;;;22.60;99.90;;;;;;5114197;27;20181;-88
2023/08/07 02:10:12;;;;;;;19.35;14.82;;;22.50;99.90;;;;;;5126801;27;20216;-90
2023/08/07 02:12:40;;;;;;;17.92;14.40;;;22.50;99.90;;;;;;5099294;28;20259;-89
2023/08/07 02:15:08;;;;;;;18.85;14.65;;;22.60;99.90;;;;;;5039579;28;20194;-89
2023/08/07 02:17:38;;;;;;;17.58;14.45;;;22.50;99.90;;;;;;5037610;28;20186;-89
2023/08/07 02:20:06;;;;;;;18.23;15.75;;;22.50;99.90;;;;;;5101795;27;20197;-89
2023/08/07 02:22:34;;;;;;;20.35;14.63;;;22.50;99.90;;;;;;5041808;28;20233;-89
2023/08/07 02:25:01;;;;;;;18.00;14.98;;;22.50;99.90;;;;;;5101542;28;20192;-89
2023/08/07 02:27:29;;;;;;;17.92;15.27;;;22.40;99.90;;;;;;5040584;28;20194;-88
2023/08/07 02:29:56;;;;;;;18.60;14.55;;;22.40;99.90;;;;;;5032238;28;20189;-89
2023/08/07 02:32:24;;;;;;;21.27;14.95;;;22.50;99.90;;;;;;5130749;27;20309;-89
2023/08/07 02:34:53;;;;;;;18.33;15.63;;;22.50;99.90;;;;;;5029159;28;20193;-89
2023/08/07 02:37:23;;;;;;;17.20;13.90;;;22.50;99.90;;;;;;5093057;28;20190;-89
2023/08/07 02:39:51;;;;;;;17.30;15.20;;;22.50;99.90;;;;;;5034343;28;20351;-89
2023/08/07 02:42:18;;;;;;;20.20;15.07;;;22.50;99.90;;;;;;5025706;28;20212;-90
2023/08/07 02:44:46;;;;;;;18.92;14.35;;;22.40;99.90;;;;;;5042256;28;20216;-89
2023/08/07 02:47:14;;;;;;;21.52;16.25;;;22.50;99.90;;;;;;5108526;28;20308;-89
2023/08/07 02:49:41;;;;;;;21.45;15.98;;;22.40;99.90;;;;;;5112512;28;20208;-88
2023/08/07 02:52:09;;;;;;;20.33;14.88;;;22.40;99.90;;;;;;5111464;28;20230;-90
2023/08/07 02:54:36;;;;;;;18.02;15.88;;;22.30;99.90;;;;;;5026581;28;20201;-89
2023/08/07 02:57:04;;;;;;;20.10;15.40;;;22.30;99.90;;;;;;5026144;28;20220;-87
2023/08/07 02:59:31;;;;;;;17.40;15.38;;;22.40;99.90;;;;;;5112885;28;20228;-89
2023/08/07 03:01:59;;;;;;;20.48;16.92;;;22.40;99.90;;;;;;5027923;28;20884;-89
2023/08/07 03:04:27;;;;;;;21.42;14.82;;;22.40;99.90;;;;;;5031644;28;20932;-88
2023/08/07 03:06:54;;;;;;;20.77;16.63;;;22.40;99.90;;;;;;5016707;28;20209;-89
2023/08/07 03:09:22;;;;;;;18.35;15.65;;;22.40;99.90;;;;;;5098643;28;20215;-88
2023/08/07 03:11:50;;;;;;;19.48;15.70;;;22.40;99.90;;;;;;5093185;28;20259;-89
2023/08/07 03:14:17;;;;;;;21.27;16.00;;;22.50;99.90;;;;;;5016022;28;20204;-88
2023/08/07 03:16:46;;;;;;;17.83;15.35;;;22.50;99.90;;;;;;5039012;28;20667;-89
2023/08/07 03:19:13;;;;;;;20.92;16.13;;;22.50;99.90;;;;;;5099229;27;20612;-88
2023/08/07 03:21:41;;;;;;;20.92;16.73;;;22.50;99.90;;;;;;5017039;28;20229;-88
2023/08/07 03:24:08;;;;;;;20.90;15.88;;;22.50;99.90;;;;;;5019940;28;20221;-89
2023/08/07 03:26:39;;;;;;;19.90;15.88;;;22.50;99.90;;;;;;5013475;28;20186;-88
2023/08/07 03:29:06;;;;;;;18.95;16.38;;;22.50;99.90;;;;;;5013787;28;20198;-89
2023/08/07 03:31:34;;;;;;;19.55;16.70;;;22.50;99.90;;;;;;5103388;27;20751;-90
2023/08/07 03:34:03;;;;;;;19.90;14.82;;;22.50;99.90;;;;;;5104691;27;20216;-90
2023/08/07 03:36:30;;;;;;;20.75;15.80;;;22.60;99.90;;;;;;5044040;28;20285;-90
2023/08/07 03:38:58;;;;;;;20.40;15.52;;;22.50;99.90;;;;;;5101092;28;20205;-90
2023/08/07 03:41:25;;;;;;;18.35;15.60;;;22.60;99.90;;;;;;5111969;27;20214;-90
2023/08/07 03:43:52;;;;;;;22.25;16.02;;;22.60;99.90;;;;;;5013944;28;20213;-89
2023/08/07 03:46:20;;;;;;;19.75;16.25;;;22.50;99.90;;;;;;5034767;28;20196;-90
2023/08/07 03:48:48;;;;;;;20.70;15.02;;;22.60;99.90;;;;;;5026554;28;20193;-89
2023/08/07 03:51:18;;;;;;;19.15;15.30;;;22.60;99.90;;;;;;5105513;27;20213;-90
2023/08/07 03:53:49;;;;;;;21.17;15.32;;;22.50;99.90;;;;;;5041911;28;20188;-90
2023/08/07 03:56:17;;;;;;;18.27;16.25;;;22.60;99.90;;;;;;5023554;28;20217;-90
2023/08/07 03:58:45;;;;;;;18.50;15.30;;;22.60;99.90;;;;;;5032294;28;20187;-90
2023/08/07 04:01:13;;;;;;;20.70;16.33;;;22.60;99.90;;;;;;5085085;28;20267;-90
2023/08/07 04:03:41;;;;;;;20.58;16.88;;;22.60;99.90;;;;;;5024740;28;20317;-89
2023/08/07 04:06:10;;;;;;;24.00;16.58;;;22.60;99.90;;;;;;5030805;28;20217;-90
2023/08/07 04:08:38;;;;;;;22.75;17.00;;;22.70;99.90;;;;;;5035728;28;20293;-89
2023/08/07 04:11:05;;;;;;;18.10;15.50;;;22.70;99.90;;;;;;5038823;28;20191;-90
2023/08/07 04:13:35;;;;;;;23.27;16.75;;;22.70;99.90;;;;;;5011580;28;20216;-91
2023/08/07 04:16:04;;;;;;;22.48;15.90;;;22.70;99.90;;;;;;5028505;28;20194;-90
2023/08/07 04:18:33;;;;;;;18.33;15.90;;;22.70;99.90;;;;;;5032969;28;20314;-90
2023/08/07 04:21:02;;;;;;;20.05;16.38;;;22.70;99.90;;;;;;5029005;28;20189;-90
2023/08/07 04:23:31;;;;;;;17.92;15.32;;;22.80;99.90;;;;;;5037228;28;20244;-89
2023/08/07 04:25:59;;;;;;;20.58;16.48;;;22.80;99.90;;;;;;5036784;28;20240;-90
2023/08/07 04:28:30;;;;;;;20.17;16.55;;;22.80;99.90;;;;;;5022010;28;20185;-91
2023/08/07 04:30:58;;;;;;;20.95;16.58;;;22.80;99.90;;;;;;5045927;28;20978;-90
2023/08/07 04:33:25;;;;;;;18.30;15.68;;;22.80;99.90;;;;;;5113952;27;20608;-89
2023/08/07 04:35:53;;;;;;;18.35;15.85;;;22.80;99.90;;;;;;5031340;28;20211;-91
2023/08/07 04:38:21;;;;;;;19.55;16.77;;;22.80;99.90;;;;;;5119705;27;20186;-91
2023/08/07 04:40:49;;;;;;;23.35;17.13;;;22.80;99.90;;;;;;5008353;28;20208;-90
2023/08/07 04:43:21;;;;;;;20.30;16.20;;;22.80;99.90;;;;;;5014397;28;20214;-90
2023/08/07 04:45:49;;;;;;;20.77;16.85;;;22.80;99.90;;;;;;5095300;27;20298;-90
2023/08/07 04:48:17;;;;;;;21.45;16.92;;;22.90;99.90;;;;;;5036147;28;20186;-91
2023/08/07 04:50:45;;;;;;;19.00;16.00;;;22.90;99.90;;;;;;5082237;27;20190;-90
2023/08/07 04:53:13;;;;;;;20.25;16.40;;;22.90;99.90;;;;;;5038655;28;20193;-91
2023/08/07 04:55:40;;;;;;;21.60;16.13;;;22.90;99.90;;;;;;5033646;28;20192;-89
2023/08/07 04:58:08;;;;;;;22.92;16.98;;;22.90;99.90;;;;;;5039519;28;20190;-90
2023/08/07 05:00:36;;;;;;;19.10;16.33;;;22.90;99.90;;;;;;5029040;28;20194;-90
2023/08/07 05:03:04;;;;;;;18.70;15.98;;;22.90;99.90;;;;;;5040131;28;20216;-89
2023/08/07 05:05:32;;;;;;;21.05;14.93;;;22.90;99.90;;;;;;5129558;27;20213;-90
2023/08/07 05:07:59;;;;;;;18.52;15.73;;;22.90;99.90;;;;;;5101610;27;20576;-90
2023/08/07 05:10:27;;;;;;;20.50;17.05;;;22.90;99.90;;;;;;5028614;28;20182;-90
2023/08/07 05:12:55;;;;;;;18.65;15.35;;;23.00;99.90;;;;;;5014276;28;20562;-91
2023/08/07 05:15:24;;;;;;;18.20;15.43;;;23.00;99.90;;;;;;5029274;28;20243;-91
2023/08/07 05:17:52;;;;;;;18.65;16.40;;;23.10;99.90;;;;;;5011412;28;20198;-90
2023/08/07 05:20:20;;;;;;;21.10;15.73;;;23.20;99.90;;;;;;5033170;28;20194;-89
2023/08/07 05:22:47;;;;;;;21.67;16.08;;;23.20;99.90;;;;;;5018295;28;20232;-87
2023/08/07 05:25:16;;;;;;;18.85;16.15;;;23.30;99.90;;;;;;5028378;28;20237;-90
2023/08/07 05:27:45;;;;;;;18.50;15.38;;;23.40;99.90;;;;;;5030869;28;20246;-90
2023/08/07 05:30:13;;;;;;;17.63;15.23;;;23.40;99.90;;;;;;5026839;28;20202;-91
2023/08/07 05:32:41;;;;;;;20.00;15.65;;;23.50;99.90;;;;;;5022761;28;20862;-91
2023/08/07 05:35:09;;;;;;;20.85;17.13;;;23.50;99.90;;;;;;5035351;28;20212;-90
2023/08/07 05:37:37;;;;;;;20.30;16.05;;;23.60;99.90;;;;;;5028329;28;20548;-91
2023/08/07 05:40:06;;;;;;;20.88;15.35;;;23.60;99.90;;;;;;5027012;28;20263;-90
2023/08/07 05:42:34;;;;;;;20.92;16.52;;;23.70;99.90;;;;;;5036509;28;20206;-90
2023/08/07 05:45:03;;;;;;;18.83;16.25;;;23.70;99.90;;;;;;5009783;28;20197;-91
2023/08/07 05:47:32;;;;;;;20.88;15.85;;;23.90;99.90;;;;;;5014125;28;20189;-90
2023/08/07 05:50:01;;;;;;;18.05;15.10;;;23.90;99.90;;;;;;5119342;27;20197;-90
2023/08/07 05:52:28;;;;;;;19.98;15.52;;;23.90;99.90;;;;;;5038414;28;20259;-90
2023/08/07 05:54:56;;;;;;;16.65;14.88;;;24.10;99.90;;;;;;5037569;28;20208;-90
2023/08/07 05:57:24;;;;;;;18.98;15.38;;;24.10;99.90;;;;;;5017338;28;20543;-90
2023/08/07 05:59:51;;;;;;;19.58;14.48;;;24.10;99.90;;;;;;5088394;28;20199;-90
2023/08/07 06:02:19;;;;;;;19.85;15.32;;;24.20;99.90;;;;;;5041345;28;20217;-90
2023/08/07 06:04:48;;;;;;;20.98;15.27;;;24.30;99.90;;;;;;5016962;28;20194;-90
2023/08/07 06:07:16;;;;;;;20.85;15.10;;;24.40;99.90;;;;;;5038079;28;20238;-89
2023/08/07 06:09:43;;;;;;;17.65;14.95;;;24.40;99.90;;;;;;5034249;28;20637;-90
2023/08/07 06:12:12;;;;;;;19.80;15.18;;;24.40;99.90;;;;;;5001675;28;20194;-91
2023/08/07 06:14:43;;;;;;;19.17;15.50;;;24.50;99.90;;;;;;5025498;28;20193;-90
2023/08/07 06:17:10;;;;;;;18.48;15.38;;;24.50;99.90;;;;;;5078517;28;20197;-89
2023/08/07 06:19:38;;;;;;;19.45;15.23;;;24.50;99.90;;;;;;5026769;28;20186;-90
2023/08/07 06:22:06;;;;;;;18.95;13.88;;;24.60;99.90;;;;;;5006696;28;20749;-88
2023/08/07 06:24:35;;;;;;;20.55;15.65;;;24.60;99.90;;;;;;5021515;28;20288;-90
2023/08/07 06:27:03;;;;;;;19.55;15.27;;;24.60;99.90;;;;;;5034403;28;20192;-91
2023/08/07 06:29:31;;;;;;;21.38;14.85;;;24.50;99.90;;;;;;5037295;28;20207;-90
2023/08/07 06:32:00;;;;;;;20.52;14.60;;;24.50;99.90;;;;;;5029960;28;20201;-90
2023/08/07 06:34:30;;;;;;;16.00;14.40;;;24.40;99.90;;;;;;5025564;28;20190;-90
2023/08/07 06:36:58;;;;;;;20.67;15.57;;;24.50;99.90;;;;;;5026382;28;20280;-90
2023/08/07 06:39:27;;;;;;;20.60;15.20;;;24.60;99.90;;;;;;5019596;28;20218;-90
2023/08/07 06:41:56;;;;;;;19.25;15.55;;;24.60;99.90;;;;;;5009405;28;20197;-90
2023/08/07 06:44:33;;;;;;;17.08;14.45;;;24.80;99.90;;;;;;5007998;28;20190;-89
2023/08/07 06:47:02;;;;;;;20.98;15.43;;;24.90;99.90;;;;;;5010695;28;20191;-90
2023/08/07 06:49:32;;;;;;;19.13;14.65;;;25.00;99.90;;;;;;5096423;28;20182;-89
2023/08/07 06:52:01;;;;;;;18.65;14.00;;;25.00;99.90;;;;;;5096246;28;20284;-88
2023/08/07 06:54:28;;;;;;;18.17;14.88;;;25.00;99.90;;;;;;5010078;28;20187;-90
2023/08/07 06:56:57;;;;;;;17.67;14.07;;;25.00;99.90;;;;;;5096410;28;20255;-89
2023/08/07 06:59:25;;;;;;;17.42;14.25;;;25.10;99.90;;;;;;5010381;28;20201;-89
2023/08/07 07:01:54;;;;;;;18.90;13.35;;;25.30;99.90;;;;;;5024795;28;20233;-89
2023/08/07 07:04:23;;;;;;;21.17;13.88;;;25.30;99.90;;;;;;5029391;28;20218;-88
2023/08/07 07:06:52;;;;;;;17.20;14.52;;;25.30;99.90;;;;;;5030496;28;20186;-89
2023/08/07 07:09:21;;;;;;;18.85;14.00;;;25.30;99.90;;;;;;5029499;28;20185;-89
2023/08/07 07:11:48;;;;;;;17.23;14.23;;;25.40;99.90;;;;;;5007921;28;20199;-90
2023/08/07 07:14:16;;;;;;;19.10;14.05;;;25.40;99.90;;;;;;4993438;28;20676;-89
2023/08/07 07:16:45;;;;;;;18.45;13.60;;;25.50;99.90;;;;;;5013710;28;20209;-90
2023/08/07 07:19:13;;;;;;;16.25;13.63;;;25.60;99.90;;;;;;5026781;28;20197;-90
2023/08/07 07:21:41;;;;;;;15.38;13.80;;;25.60;99.90;;;;;;5029417;28;20194;-90
2023/08/07 07:24:08;;;;;;;15.43;13.70;;;25.60;99.90;;;;;;5028856;28;20230;-89
2023/08/07 07:26:36;;;;;;;18.48;13.95;;;25.70;99.90;;;;;;5016586;28;21200;-89
2023/08/07 07:29:03;;;;;;;19.63;12.88;;;25.70;99.90;;;;;;5028746;28;20293;-90
2023/08/07 07:31:31;;;;;;;17.38;13.00;;;25.80;99.90;;;;;;5029343;28;20190;-90
2023/08/07 07:33:59;;;;;;;17.25;13.23;;;25.80;99.90;;;;;;5030564;27;20204;-91
2023/08/07 07:36:26;;;;;;;18.38;13.35;;;25.90;99.90;;;;;;5098698;28;20194;-89
2023/08/07 07:38:54;;;;;;;23.45;13.73;;;26.00;99.90;;;;;;5031232;28;20193;-91
2023/08/07 07:41:22;;;;;;;18.25;13.18;;;26.00;99.90;;;;;;5013486;28;20255;-91
2023/08/07 07:43:50;;;;;;;17.23;13.10;;;26.20;99.90;;;;;;5031007;28;20205;-90
2023/08/07 07:46:17;;;;;;;15.07;12.13;;;26.20;99.90;;;;;;5029378;28;20194;-89
2023/08/07 07:48:45;;;;;;;16.38;12.70;;;26.00;99.90;;;;;;5029464;28;20539;-91
2023/08/07 07:51:13;;;;;;;15.63;12.98;;;26.00;99.90;;;;;;5012901;28;20186;-91
2023/08/07 07:53:41;;;;;;;17.20;12.98;;;25.90;99.90;;;;;;5029456;28;20566;-90
2023/08/07 07:56:10;;;;;;;16.23;13.10;;;26.00;99.90;;;;;;5030569;28;20216;-90
2023/08/07 07:58:37;;;;;;;19.35;13.07;;;26.10;99.90;;;;;;5028048;28;20255;-91
2023/08/07 08:01:05;;;;;;;22.05;13.20;;;26.20;99.90;;;;;;5029042;28;20190;-90
2023/08/07 08:03:33;;;;;;;17.30;13.15;;;26.30;99.90;;;;;;5078041;28;20218;-91
2023/08/07 08:06:01;;;;;;;18.10;12.52;;;26.30;99.90;;;;;;5009644;28;20244;-91
2023/08/07 08:08:32;;;;;;;20.08;13.05;;;26.50;99.90;;;;;;5009360;28;20248;-91
2023/08/07 08:10:59;;;;;;;13.32;12.02;;;26.50;99.90;;;;;;4993394;28;20194;-91
2023/08/07 08:13:30;;;;;;;14.20;12.55;;;26.60;99.90;;;;;;5009324;28;20198;-89
2023/08/07 08:15:59;;;;;;;14.77;13.23;;;26.60;99.90;;;;;;5016671;28;20186;-91
2023/08/07 08:18:27;;;;;;;16.20;12.60;;;26.50;99.90;;;;;;5029015;28;20289;-90
2023/08/07 08:20:54;;;;;;;15.02;12.27;;;26.30;99.90;;;;;;5098803;28;20285;-90
2023/08/07 08:23:22;;;;;;;16.92;13.35;;;26.30;99.90;;;;;;5009890;28;20238;-91
2023/08/07 08:25:50;;;;;;;17.48;12.63;;;26.20;99.90;;;;;;4993313;28;20201;-91
2023/08/07 08:28:18;;;;;;;14.48;12.25;;;26.20;99.90;;;;;;5009072;28;20191;-90
2023/08/07 08:30:45;;;;;;;15.55;12.73;;;26.20;99.90;;;;;;5009113;28;20195;-91
2023/08/07 08:33:14;;;;;;;21.00;12.55;;;26.20;99.90;;;;;;4993122;28;20206;-90
2023/08/07 08:35:42;;;;;;;18.55;13.10;;;26.30;99.90;;;;;;5009007;28;20198;-91
2023/08/07 08:38:09;;;;;;;15.77;12.95;;;26.40;99.90;;;;;;5009002;28;20195;-92
2023/08/07 08:40:38;;;;;;;16.67;12.95;;;26.50;99.90;;;;;;5008833;28;20704;-90
2023/08/07 08:43:06;;;;;;;16.75;12.85;;;26.60;99.90;;;;;;4992856;28;20213;-92
2023/08/07 08:45:37;;;;;;;18.33;14.18;;;26.60;99.90;;;;;;4993255;28;20281;-90
2023/08/07 08:48:06;;;;;;;16.50;14.80;;;26.70;99.90;;;;;;5009069;28;20182;-91
2023/08/07 08:50:35;;;;;;;14.18;12.77;;;26.80;99.90;;;;;;5009167;28;20640;-91
2023/08/07 08:53:04;;;;;;;15.43;13.73;;;27.00;99.90;;;;;;4992629;28;20206;-91
2023/08/07 08:55:32;;;;;;;18.02;13.13;;;26.90;99.90;;;;;;5009149;28;20198;-91
2023/08/07 08:58:00;;;;;;;14.70;12.50;;;26.90;99.90;;;;;;4993075;28;20199;-92
2023/08/07 09:00:30;;;;;;;14.32;12.80;;;26.90;99.90;;;;;;4992725;28;20198;-91
2023/08/07 09:02:58;;;;;;;16.27;12.60;;;27.00;99.90;;;;;;4992500;28;20195;-91
2023/08/07 09:05:27;;;;;;;19.50;14.40;;;27.00;99.90;;;;;;4992763;28;20197;-91
2023/08/07 09:07:56;;;;;;;15.00;13.27;;;27.10;99.90;;;;;;4992495;28;20202;-91
2023/08/07 09:10:24;;;;;;;15.90;12.75;;;27.10;99.90;;;;;;4992529;28;20190;-90
2023/08/07 09:13:05;;;;;;;15.35;12.80;;;27.30;99.90;;;;;;4992746;28;20623;-91
2023/08/07 09:15:34;;;;;;;18.48;12.70;;;27.20;99.90;;;;;;5009217;28;20664;-91
2023/08/07 09:18:07;;;;;;;17.23;12.65;;;27.40;99.90;;;;;;5009240;28;20206;-91
2023/08/07 09:20:39;;;;;;;15.52;12.68;;;27.50;99.90;;;;;;4992485;28;20195;-91
2023/08/07 09:23:07;;;;;;;16.38;11.68;;;27.70;99.90;;;;;;5008810;28;20727;-91
2023/08/07 09:25:35;;;;;;;16.35;12.35;;;27.70;99.90;;;;;;5008447;28;20186;-92
2023/08/07 09:28:06;;;;;;;14.95;12.23;;;28.00;99.90;;;;;;5076870;28;20244;-92
2023/08/07 09:30:36;;;;;;;16.65;12.18;;;28.20;99.90;;;;;;5008826;28;20191;-91
2023/08/07 09:33:05;;;;;;;14.50;12.30;;;28.20;99.90;;;;;;5008356;28;20191;-91
2023/08/07 09:35:34;;;;;;;19.70;12.75;;;28.30;99.90;;;;;;5009448;28;20256;-91
2023/08/07 09:38:02;;;;;;;13.30;11.93;;;28.30;99.90;;;;;;5009118;28;20195;-92
2023/08/07 09:40:30;;;;;;;12.90;10.60;;;28.20;99.90;;;;;;5008634;28;20194;-91
2023/08/07 09:43:02;;;;;;;14.57;11.38;;;28.20;99.90;;;;;;5009466;28;20236;-91
2023/08/07 09:45:31;;;;;;;12.38;11.18;;;28.30;99.90;;;;;;5009335;28;20171;-92
2023/08/07 09:48:03;;;;;;;13.80;10.82;;;28.40;99.90;;;;;;5008110;28;20732;-91
2023/08/07 09:50:31;;;;;;;14.35;11.85;;;28.60;99.90;;;;;;5094084;28;20190;-92
2023/08/07 09:52:59;;;;;;;15.82;11.88;;;28.60;99.90;;;;;;4992018;28;20187;-91
2023/08/07 09:55:27;;;;;;;14.55;10.90;;;28.70;99.90;;;;;;5008258;28;20661;-92
2023/08/07 09:57:55;;;;;;;14.02;10.85;;;28.70;99.90;;;;;;4992022;28;20202;-91
2023/08/07 10:00:23;;;;;;;14.25;10.88;;;28.50;99.90;;;;;;5008609;28;20190;-92
2023/08/07 10:02:51;;;;;;;13.15;10.70;;;28.80;99.90;;;;;;5008335;28;20187;-91
2023/08/07 10:05:19;;;;;;;14.88;10.75;;;28.80;99.90;;;;;;4991953;28;20912;-91
2023/08/07 10:07:47;;;;;;;12.52;11.32;;;28.90;99.90;;;;;;5007989;28;20179;-92
2023/08/07 10:10:15;;;;;;;13.02;11.70;;;28.90;99.90;;;;;;4991950;28;20195;-92
2023/08/07 10:12:45;;;;;;;13.68;11.13;;;28.90;99.90;;;;;;5008582;28;20533;-91
2023/08/07 10:15:15;;;;;;;14.80;11.82;;;29.00;99.90;;;;;;5094006;28;20187;-92
2023/08/07 10:17:43;;;;;;;16.20;11.10;;;29.10;99.90;;;;;;4991916;28;20191;-93
2023/08/07 10:20:12;;;;;;;15.13;12.07;;;29.20;99.90;;;;;;5093854;28;20222;-92
2023/08/07 10:22:42;;;;;;;14.90;12.45;;;29.40;99.90;;;;;;5007719;28;20652;-91
2023/08/07 10:25:10;;;;;;;13.73;11.90;;;29.30;99.90;;;;;;5093820;28;20211;-92
2023/08/07 10:27:40;;;;;;;16.35;11.93;;;29.30;99.90;;;;;;4991341;28;20202;-92
2023/08/07 10:30:14;;;;;;;13.93;11.80;;;29.60;99.90;;;;;;4991649;28;20194;-92
2023/08/07 10:32:43;;;;;;;16.25;12.15;;;29.70;99.90;;;;;;5007767;28;20183;-92
2023/08/07 10:35:24;;;;;;;13.55;12.00;;;29.80;99.90;;;;;;4991700;28;20290;-90
2023/08/07 10:37:54;;;;;;;15.60;12.93;;;29.80;99.90;;;;;;4991639;28;20210;-92
2023/08/07 10:40:22;;;;;;;15.70;12.50;;;29.70;99.90;;;;;;4991956;28;20202;-93
2023/08/07 10:43:11;;;;;;;14.10;11.70;;;29.80;99.90;;;;;;5007519;28;20222;-92
2023/08/07 10:45:39;;;;;;;16.00;12.57;;;29.70;99.90;;;;;;4991404;28;20664;-92
2023/08/07 10:48:12;;;;;;;14.35;12.80;;;29.70;99.90;;;;;;5007452;28;20202;-92
2023/08/07 10:50:51;;;;;;;14.43;12.93;;;29.80;99.90;;;;;;5093840;28;20201;-92
2023/08/07 10:53:32;;;;;;;14.02;11.95;;;29.90;99.90;;;;;;5093881;28;20187;-93
2023/08/07 10:56:07;;;;;;;15.60;12.13;;;30.00;99.90;;;;;;5007450;28;20183;-91
2023/08/07 10:58:39;;;;;;;14.98;11.82;;;30.00;99.90;;;;;;4991221;28;20207;-92
2023/08/07 11:01:20;;;;;;;14.45;12.15;;;30.00;99.90;;;;;;4991258;28;20187;-92
2023/08/07 11:03:59;;;;;;;14.50;12.02;;;29.80;99.90;;;;;;5007234;28;20255;-92
2023/08/07 11:06:33;;;;;;;12.88;11.68;;;29.90;99.90;;;;;;4991271;28;20419;-92
2023/08/07 11:09:05;;;;;;;16.42;11.50;;;30.00;99.90;;;;;;5007632;28;20628;-92
2023/08/07 11:11:41;;;;;;;14.10;12.32;;;29.90;99.90;;;;;;4991293;28;20193;-93
2023/08/07 11:14:17;;;;;;;18.75;12.63;;;30.00;99.90;;;;;;5093276;28;20194;-92
2023/08/07 11:16:47;;;;;;;14.65;11.68;;;30.00;99.90;;;;;;5007512;28;20203;-92
2023/08/07 11:19:17;;;;;;;14.35;11.43;;;30.00;99.90;;;;;;5007243;28;20194;-92
2023/08/07 11:21:45;;;;;;;18.48;11.95;;;29.90;99.90;;;;;;5007142;28;20214;-92
2023/08/07 11:24:13;;;;;;;12.73;11.50;;;29.80;99.90;;;;;;5007155;28;20634;-92
2023/08/07 11:26:44;;;;;;;13.93;11.55;;;29.80;99.90;;;;;;4990928;28;20242;-92
2023/08/07 11:29:17;;;;;;;14.10;11.45;;;30.00;99.90;;;;;;5093416;28;20214;-92
2023/08/07 11:31:45;;;;;;;17.38;12.18;;;30.10;99.90;;;;;;4990946;28;20214;-92
2023/08/07 11:34:13;;;;;;;14.13;12.07;;;30.30;99.90;;;;;;4993534;28;20195;-93
2023/08/07 11:36:44;;;;;;;13.93;12.40;;;30.10;99.90;;;;;;5010414;28;20198;-92
2023/08/07 11:39:13;;;;;;;14.10;12.00;;;30.30;99.90;;;;;;5010368;28;20203;-92
2023/08/07 11:41:41;;;;;;;15.25;12.38;;;30.40;99.90;;;;;;4994223;28;20206;-91
2023/08/07 11:44:09;;;;;;;13.23;11.85;;;30.50;99.90;;;;;;5009962;28;20215;-93
2023/08/07 11:46:37;;;;;;;16.27;12.40;;;30.50;99.90;;;;;;4994286;28;20214;-92
2023/08/07 11:49:05;;;;;;;18.50;12.73;;;30.70;99.90;;;;;;4993831;28;20195;-92
2023/08/07 11:51:33;;;;;;;13.73;12.32;;;30.60;99.90;;;;;;5010013;28;20183;-92
2023/08/07 11:54:02;;;;;;;20.25;12.63;;;30.60;99.90;;;;;;5009685;28;20199;-92
2023/08/07 11:56:30;;;;;;;16.67;12.35;;;30.80;99.90;;;;;;5009975;28;20197;-91
2023/08/07 11:58:58;;;;;;;12.73;11.35;;;31.10;99.90;;;;;;4993710;28;20696;-92
2023/08/07 12:01:29;;;;;;;13.63;11.45;;;30.90;99.90;;;;;;5010486;28;20186;-92
2023/08/07 12:04:06;;;;;;;17.25;11.63;;;30.70;99.90;;;;;;5096968;28;20314;-94
2023/08/07 12:06:35;;;;;;;16.63;10.82;;;30.70;99.90;;;;;;5010179;28;20186;-92
2023/08/07 12:09:03;;;;;;;13.10;11.27;;;30.80;99.90;;;;;;4993747;28;20187;-93
2023/08/07 12:11:30;;;;;;;18.83;12.38;;;31.10;99.90;;;;;;5096106;28;20186;-92
2023/08/07 12:14:03;;;;;;;14.00;11.75;;;31.10;99.90;;;;;;4993652;28;20191;-92
2023/08/07 12:16:35;;;;;;;13.20;11.00;;;31.10;99.90;;;;;;5096009;28;20198;-93
2023/08/07 12:19:04;;;;;;;16.42;11.90;;;31.00;99.90;;;;;;4993994;28;20657;-91
2023/08/07 12:21:33;;;;;;;12.82;11.50;;;31.00;99.90;;;;;;4994277;28;20198;-93
2023/08/07 12:24:01;;;;;;;15.00;11.57;;;31.10;99.90;;;;;;5009635;28;20421;-92
2023/08/07 12:26:28;;;;;;;12.57;11.27;;;31.30;99.90;;;;;;5009781;28;20187;-93
2023/08/07 12:28:56;;;;;;;14.85;12.10;;;31.50;99.90;;;;;;4993392;28;20205;-93
2023/08/07 12:31:23;;;;;;;21.13;12.57;;;31.50;99.90;;;;;;5009946;28;20206;-92
2023/08/07 12:33:51;;;;;;;15.23;12.15;;;31.70;99.90;;;;;;4993761;28;20567;-92
2023/08/07 12:36:20;;;;;;;14.10;11.65;;;31.40;99.90;;;;;;5009683;28;20244;-92